sensor_id;sensor_type;location;lat;lon;timestamp;P1;durP1;ratioP1;P2;durP2;ratioP2
51852;SDS011;37894;53.172;6.598;2023-09-12T00:02:05;56.03;;;32.50;;
51852;SDS011;37894;53.172;6.598;2023-09-12T00:04:31;55.20;;;33.22;;
51852;SDS011;37894;53.172;6.598;2023-09-12T00:06:56;48.97;;;31.00;;
51852;SDS011;37894;53.172;6.598;2023-09-12T00:09:22;55.33;;;34.00;;
51852;SDS011;37894;53.172;6.598;2023-09-12T00:11:48;57.50;;;34.03;;
51852;SDS011;37894;53.172;6.598;2023-09-12T00:14:17;51.85;;;33.83;;
51852;SDS011;37894;53.172;6.598;2023-09-12T00:16:43;53.45;;;33.58;;
51852;SDS011;37894;53.172;6.598;2023-09-12T00:19:09;51.17;;;32.95;;
51852;SDS011;37894;53.172;6.598;2023-09-12T00:21:35;47.15;;;32.50;;
51852;SDS011;37894;53.172;6.598;2023-09-12T00:24:00;61.58;;;33.42;;
51852;SDS011;37894;53.172;6.598;2023-09-12T00:26:26;55.13;;;32.88;;
51852;SDS011;37894;53.172;6.598;2023-09-12T00:28:52;54.80;;;32.92;;
51852;SDS011;37894;53.172;6.598;2023-09-12T00:31:17;65.63;;;33.88;;
51852;SDS011;37894;53.172;6.598;2023-09-12T00:33:43;57.10;;;33.83;;
51852;SDS011;37894;53.172;6.598;2023-09-12T00:36:09;56.85;;;33.80;;
51852;SDS011;37894;53.172;6.598;2023-09-12T00:38:34;52.80;;;33.15;;
51852;SDS011;37894;53.172;6.598;2023-09-12T00:41:00;51.80;;;32.63;;
51852;SDS011;37894;53.172;6.598;2023-09-12T00:43:26;54.22;;;32.45;;
51852;SDS011;37894;53.172;6.598;2023-09-12T00:45:51;53.88;;;33.17;;
51852;SDS011;37894;53.172;6.598;2023-09-12T00:48:18;57.65;;;34.85;;
51852;SDS011;37894;53.172;6.598;2023-09-12T00:50:44;52.88;;;35.28;;
51852;SDS011;37894;53.172;6.598;2023-09-12T00:53:12;59.10;;;34.88;;
51852;SDS011;37894;53.172;6.598;2023-09-12T00:55:40;60.63;;;34.30;;
51852;SDS011;37894;53.172;6.598;2023-09-12T00:58:10;58.83;;;33.80;;
51852;SDS011;37894;53.172;6.598;2023-09-12T01:00:37;54.80;;;34.13;;
51852;SDS011;37894;53.172;6.598;2023-09-12T01:03:03;52.88;;;33.58;;
51852;SDS011;37894;53.172;6.598;2023-09-12T01:05:29;59.17;;;33.10;;
51852;SDS011;37894;53.172;6.598;2023-09-12T01:07:55;57.80;;;34.38;;
51852;SDS011;37894;53.172;6.598;2023-09-12T01:10:21;57.08;;;35.03;;
51852;SDS011;37894;53.172;6.598;2023-09-12T01:12:47;50.90;;;31.48;;
51852;SDS011;37894;53.172;6.598;2023-09-12T01:15:13;48.65;;;33.05;;
51852;SDS011;37894;53.172;6.598;2023-09-12T01:17:42;59.63;;;37.55;;
51852;SDS011;37894;53.172;6.598;2023-09-12T01:20:11;58.47;;;35.47;;
51852;SDS011;37894;53.172;6.598;2023-09-12T01:28:21;62.00;;;35.17;;
51852;SDS011;37894;53.172;6.598;2023-09-12T01:30:50;60.78;;;35.42;;
51852;SDS011;37894;53.172;6.598;2023-09-12T01:33:18;71.80;;;40.13;;
51852;SDS011;37894;53.172;6.598;2023-09-12T01:35:44;60.25;;;36.20;;
51852;SDS011;37894;53.172;6.598;2023-09-12T01:38:11;65.18;;;38.10;;
51852;SDS011;37894;53.172;6.598;2023-09-12T01:40:43;58.83;;;34.60;;
51852;SDS011;37894;53.172;6.598;2023-09-12T01:43:13;68.40;;;36.85;;
51852;SDS011;37894;53.172;6.598;2023-09-12T01:45:42;63.55;;;36.70;;
51852;SDS011;37894;53.172;6.598;2023-09-12T01:48:10;64.32;;;36.58;;
51852;SDS011;37894;53.172;6.598;2023-09-12T01:50:37;67.88;;;35.67;;
51852;SDS011;37894;53.172;6.598;2023-09-12T01:53:03;65.68;;;37.90;;
51852;SDS011;37894;53.172;6.598;2023-09-12T01:55:29;71.13;;;39.45;;
51852;SDS011;37894;53.172;6.598;2023-09-12T01:57:56;68.65;;;38.20;;
51852;SDS011;37894;53.172;6.598;2023-09-12T02:00:23;75.53;;;40.40;;
51852;SDS011;37894;53.172;6.598;2023-09-12T02:02:50;70.85;;;40.28;;
51852;SDS011;37894;53.172;6.598;2023-09-12T02:05:22;67.75;;;40.70;;
51852;SDS011;37894;53.172;6.598;2023-09-12T02:10:14;67.65;;;38.88;;
51852;SDS011;37894;53.172;6.598;2023-09-12T02:12:40;73.65;;;38.78;;
51852;SDS011;37894;53.172;6.598;2023-09-12T02:15:06;79.13;;;41.33;;
51852;SDS011;37894;53.172;6.598;2023-09-12T02:17:32;62.72;;;36.42;;
51852;SDS011;37894;53.172;6.598;2023-09-12T02:19:58;68.68;;;36.97;;
51852;SDS011;37894;53.172;6.598;2023-09-12T02:22:23;76.90;;;37.85;;
51852;SDS011;37894;53.172;6.598;2023-09-12T02:24:49;81.57;;;39.58;;
51852;SDS011;37894;53.172;6.598;2023-09-12T02:27:16;69.68;;;38.22;;
51852;SDS011;37894;53.172;6.598;2023-09-12T02:29:42;66.00;;;35.85;;
51852;SDS011;37894;53.172;6.598;2023-09-12T02:32:08;73.38;;;39.30;;
51852;SDS011;37894;53.172;6.598;2023-09-12T02:34:34;78.95;;;41.30;;
51852;SDS011;37894;53.172;6.598;2023-09-12T02:37:00;74.82;;;40.50;;
51852;SDS011;37894;53.172;6.598;2023-09-12T02:39:25;78.93;;;42.10;;
51852;SDS011;37894;53.172;6.598;2023-09-12T02:41:51;76.32;;;39.38;;
51852;SDS011;37894;53.172;6.598;2023-09-12T02:44:17;84.07;;;40.28;;
51852;SDS011;37894;53.172;6.598;2023-09-12T02:46:43;83.32;;;40.10;;
51852;SDS011;37894;53.172;6.598;2023-09-12T02:49:08;77.07;;;38.97;;
51852;SDS011;37894;53.172;6.598;2023-09-12T02:51:37;79.22;;;40.10;;
51852;SDS011;37894;53.172;6.598;2023-09-12T02:54:03;80.68;;;39.00;;
51852;SDS011;37894;53.172;6.598;2023-09-12T02:56:29;75.32;;;39.58;;
51852;SDS011;37894;53.172;6.598;2023-09-12T02:58:55;67.60;;;37.10;;
51852;SDS011;37894;53.172;6.598;2023-09-12T03:01:21;65.65;;;37.15;;
51852;SDS011;37894;53.172;6.598;2023-09-12T03:03:50;81.88;;;39.40;;
51852;SDS011;37894;53.172;6.598;2023-09-12T03:06:16;67.82;;;37.72;;
51852;SDS011;37894;53.172;6.598;2023-09-12T03:08:45;84.20;;;41.97;;
51852;SDS011;37894;53.172;6.598;2023-09-12T03:11:11;94.85;;;42.20;;
51852;SDS011;37894;53.172;6.598;2023-09-12T03:13:37;81.43;;;39.60;;
51852;SDS011;37894;53.172;6.598;2023-09-12T03:16:04;82.25;;;42.40;;
51852;SDS011;37894;53.172;6.598;2023-09-12T03:18:30;80.18;;;38.63;;
51852;SDS011;37894;53.172;6.598;2023-09-12T03:20:55;88.13;;;41.55;;
51852;SDS011;37894;53.172;6.598;2023-09-12T03:23:21;85.78;;;42.55;;
51852;SDS011;37894;53.172;6.598;2023-09-12T03:25:47;85.90;;;43.08;;
51852;SDS011;37894;53.172;6.598;2023-09-12T03:28:12;85.57;;;41.22;;
51852;SDS011;37894;53.172;6.598;2023-09-12T03:30:38;79.47;;;38.53;;
51852;SDS011;37894;53.172;6.598;2023-09-12T03:33:05;97.25;;;40.95;;
51852;SDS011;37894;53.172;6.598;2023-09-12T03:35:31;85.72;;;40.58;;
51852;SDS011;37894;53.172;6.598;2023-09-12T03:37:58;69.15;;;37.75;;
51852;SDS011;37894;53.172;6.598;2023-09-12T03:40:23;65.00;;;34.90;;
51852;SDS011;37894;53.172;6.598;2023-09-12T03:42:49;82.20;;;38.88;;
51852;SDS011;37894;53.172;6.598;2023-09-12T03:45:15;77.85;;;37.63;;
51852;SDS011;37894;53.172;6.598;2023-09-12T03:47:41;79.30;;;39.60;;
51852;SDS011;37894;53.172;6.598;2023-09-12T03:50:07;74.35;;;37.25;;
51852;SDS011;37894;53.172;6.598;2023-09-12T03:52:33;80.15;;;38.40;;
51852;SDS011;37894;53.172;6.598;2023-09-12T03:54:59;74.30;;;39.40;;
51852;SDS011;37894;53.172;6.598;2023-09-12T03:57:26;76.75;;;37.85;;
51852;SDS011;37894;53.172;6.598;2023-09-12T03:59:51;75.90;;;39.90;;
51852;SDS011;37894;53.172;6.598;2023-09-12T04:02:18;80.15;;;40.42;;
51852;SDS011;37894;53.172;6.598;2023-09-12T04:04:44;76.18;;;36.83;;
51852;SDS011;37894;53.172;6.598;2023-09-12T04:07:09;85.07;;;40.42;;
51852;SDS011;37894;53.172;6.598;2023-09-12T04:09:35;84.38;;;40.97;;
51852;SDS011;37894;53.172;6.598;2023-09-12T04:12:01;76.53;;;37.97;;
51852;SDS011;37894;53.172;6.598;2023-09-12T04:14:27;76.57;;;38.67;;
51852;SDS011;37894;53.172;6.598;2023-09-12T04:16:53;70.22;;;37.92;;
51852;SDS011;37894;53.172;6.598;2023-09-12T04:19:18;76.05;;;36.85;;
51852;SDS011;37894;53.172;6.598;2023-09-12T04:21:44;66.50;;;35.58;;
51852;SDS011;37894;53.172;6.598;2023-09-12T04:24:10;69.45;;;35.90;;
51852;SDS011;37894;53.172;6.598;2023-09-12T04:26:36;63.65;;;36.28;;
51852;SDS011;37894;53.172;6.598;2023-09-12T04:29:01;66.13;;;34.55;;
51852;SDS011;37894;53.172;6.598;2023-09-12T04:31:27;71.55;;;36.35;;
51852;SDS011;37894;53.172;6.598;2023-09-12T04:33:53;52.72;;;30.88;;
51852;SDS011;37894;53.172;6.598;2023-09-12T04:36:19;68.80;;;35.88;;
51852;SDS011;37894;53.172;6.598;2023-09-12T04:38:45;59.17;;;33.50;;
51852;SDS011;37894;53.172;6.598;2023-09-12T04:41:12;59.13;;;33.95;;
51852;SDS011;37894;53.172;6.598;2023-09-12T04:43:42;54.45;;;30.65;;
51852;SDS011;37894;53.172;6.598;2023-09-12T04:46:11;67.20;;;31.38;;
51852;SDS011;37894;53.172;6.598;2023-09-12T04:48:37;57.00;;;32.63;;
51852;SDS011;37894;53.172;6.598;2023-09-12T04:51:03;50.53;;;31.85;;
51852;SDS011;37894;53.172;6.598;2023-09-12T04:53:29;59.33;;;33.15;;
51852;SDS011;37894;53.172;6.598;2023-09-12T04:56:01;54.25;;;32.13;;
51852;SDS011;37894;53.172;6.598;2023-09-12T04:58:28;62.28;;;34.47;;
51852;SDS011;37894;53.172;6.598;2023-09-12T05:00:54;60.38;;;33.35;;
51852;SDS011;37894;53.172;6.598;2023-09-12T05:03:20;71.22;;;38.88;;
51852;SDS011;37894;53.172;6.598;2023-09-12T05:05:47;79.25;;;38.35;;
51852;SDS011;37894;53.172;6.598;2023-09-12T05:08:13;87.00;;;40.47;;
51852;SDS011;37894;53.172;6.598;2023-09-12T05:10:38;82.70;;;37.08;;
51852;SDS011;37894;53.172;6.598;2023-09-12T05:13:04;76.53;;;38.05;;
51852;SDS011;37894;53.172;6.598;2023-09-12T05:15:32;79.20;;;38.95;;
51852;SDS011;37894;53.172;6.598;2023-09-12T05:17:57;67.97;;;36.38;;
51852;SDS011;37894;53.172;6.598;2023-09-12T05:20:23;89.93;;;40.30;;
51852;SDS011;37894;53.172;6.598;2023-09-12T05:22:49;92.65;;;40.75;;
51852;SDS011;37894;53.172;6.598;2023-09-12T05:25:15;105.18;;;43.72;;
51852;SDS011;37894;53.172;6.598;2023-09-12T05:27:41;118.68;;;45.15;;
51852;SDS011;37894;53.172;6.598;2023-09-12T05:30:06;141.45;;;46.90;;
51852;SDS011;37894;53.172;6.598;2023-09-12T05:32:32;139.60;;;45.80;;
51852;SDS011;37894;53.172;6.598;2023-09-12T05:34:58;181.23;;;49.75;;
51852;SDS011;37894;53.172;6.598;2023-09-12T05:37:24;184.82;;;48.25;;
51852;SDS011;37894;53.172;6.598;2023-09-12T05:39:49;186.52;;;46.78;;
51852;SDS011;37894;53.172;6.598;2023-09-12T05:42:15;233.70;;;48.88;;
51852;SDS011;37894;53.172;6.598;2023-09-12T05:44:46;293.95;;;53.40;;
51852;SDS011;37894;53.172;6.598;2023-09-12T05:47:12;303.67;;;54.78;;
51852;SDS011;37894;53.172;6.598;2023-09-12T05:49:38;258.58;;;51.92;;
51852;SDS011;37894;53.172;6.598;2023-09-12T05:52:04;280.15;;;51.97;;
51852;SDS011;37894;53.172;6.598;2023-09-12T05:54:30;158.00;;;47.78;;
51852;SDS011;37894;53.172;6.598;2023-09-12T05:56:56;234.73;;;53.00;;
51852;SDS011;37894;53.172;6.598;2023-09-12T05:59:22;183.48;;;51.22;;
51852;SDS011;37894;53.172;6.598;2023-09-12T06:01:47;138.98;;;46.05;;
51852;SDS011;37894;53.172;6.598;2023-09-12T06:04:14;178.70;;;47.95;;
51852;SDS011;37894;53.172;6.598;2023-09-12T06:06:40;170.05;;;53.20;;
51852;SDS011;37894;53.172;6.598;2023-09-12T06:09:06;162.75;;;44.97;;
51852;SDS011;37894;53.172;6.598;2023-09-12T06:11:31;214.60;;;49.75;;
51852;SDS011;37894;53.172;6.598;2023-09-12T06:13:57;221.93;;;51.13;;
51852;SDS011;37894;53.172;6.598;2023-09-12T06:16:23;224.48;;;52.13;;
51852;SDS011;37894;53.172;6.598;2023-09-12T06:18:49;232.13;;;52.28;;
51852;SDS011;37894;53.172;6.598;2023-09-12T06:21:14;191.45;;;48.05;;
51852;SDS011;37894;53.172;6.598;2023-09-12T06:23:40;241.98;;;52.92;;
51852;SDS011;37894;53.172;6.598;2023-09-12T06:26:06;188.45;;;45.85;;
51852;SDS011;37894;53.172;6.598;2023-09-12T06:28:31;185.13;;;49.10;;
51852;SDS011;37894;53.172;6.598;2023-09-12T06:30:57;244.48;;;48.80;;
51852;SDS011;37894;53.172;6.598;2023-09-12T06:33:24;174.18;;;45.50;;
51852;SDS011;37894;53.172;6.598;2023-09-12T06:35:51;118.97;;;40.03;;
51852;SDS011;37894;53.172;6.598;2023-09-12T06:38:18;163.73;;;43.03;;
51852;SDS011;37894;53.172;6.598;2023-09-12T06:40:44;145.27;;;42.80;;
51852;SDS011;37894;53.172;6.598;2023-09-12T06:43:12;165.63;;;45.00;;
51852;SDS011;37894;53.172;6.598;2023-09-12T06:45:39;127.57;;;42.22;;
51852;SDS011;37894;53.172;6.598;2023-09-12T06:48:06;152.18;;;43.45;;
51852;SDS011;37894;53.172;6.598;2023-09-12T06:50:32;164.77;;;45.00;;
51852;SDS011;37894;53.172;6.598;2023-09-12T06:52:58;199.75;;;49.25;;
51852;SDS011;37894;53.172;6.598;2023-09-12T06:55:23;207.93;;;45.72;;
51852;SDS011;37894;53.172;6.598;2023-09-12T06:57:49;159.50;;;46.10;;
51852;SDS011;37894;53.172;6.598;2023-09-12T07:00:15;163.18;;;48.20;;
51852;SDS011;37894;53.172;6.598;2023-09-12T07:02:42;187.38;;;48.10;;
51852;SDS011;37894;53.172;6.598;2023-09-12T07:05:08;156.77;;;47.97;;
51852;SDS011;37894;53.172;6.598;2023-09-12T07:07:33;143.05;;;43.90;;
51852;SDS011;37894;53.172;6.598;2023-09-12T07:09:59;141.52;;;44.67;;
51852;SDS011;37894;53.172;6.598;2023-09-12T07:12:28;113.13;;;42.78;;
51852;SDS011;37894;53.172;6.598;2023-09-12T07:14:54;145.45;;;43.90;;
51852;SDS011;37894;53.172;6.598;2023-09-12T07:17:21;123.80;;;43.25;;
51852;SDS011;37894;53.172;6.598;2023-09-12T07:19:47;120.20;;;44.28;;
51852;SDS011;37894;53.172;6.598;2023-09-12T07:22:12;127.90;;;45.03;;
51852;SDS011;37894;53.172;6.598;2023-09-12T07:24:38;121.90;;;42.75;;
51852;SDS011;37894;53.172;6.598;2023-09-12T07:27:04;100.22;;;40.25;;
51852;SDS011;37894;53.172;6.598;2023-09-12T07:29:30;103.10;;;41.88;;
51852;SDS011;37894;53.172;6.598;2023-09-12T07:31:56;122.30;;;43.15;;
51852;SDS011;37894;53.172;6.598;2023-09-12T07:34:23;92.60;;;40.70;;
51852;SDS011;37894;53.172;6.598;2023-09-12T07:36:48;102.32;;;44.83;;
51852;SDS011;37894;53.172;6.598;2023-09-12T07:39:16;96.57;;;42.83;;
51852;SDS011;37894;53.172;6.598;2023-09-12T07:41:42;96.40;;;42.03;;
51852;SDS011;37894;53.172;6.598;2023-09-12T07:44:08;106.60;;;43.97;;
51852;SDS011;37894;53.172;6.598;2023-09-12T07:46:37;88.10;;;39.58;;
51852;SDS011;37894;53.172;6.598;2023-09-12T07:49:03;84.97;;;38.97;;
51852;SDS011;37894;53.172;6.598;2023-09-12T07:51:29;77.47;;;40.83;;
51852;SDS011;37894;53.172;6.598;2023-09-12T07:53:54;72.45;;;36.67;;
51852;SDS011;37894;53.172;6.598;2023-09-12T07:56:20;73.60;;;38.17;;
51852;SDS011;37894;53.172;6.598;2023-09-12T07:58:46;73.75;;;36.83;;
51852;SDS011;37894;53.172;6.598;2023-09-12T08:01:12;69.28;;;35.38;;
51852;SDS011;37894;53.172;6.598;2023-09-12T08:03:38;65.05;;;36.15;;
51852;SDS011;37894;53.172;6.598;2023-09-12T08:06:05;78.57;;;38.95;;
51852;SDS011;37894;53.172;6.598;2023-09-12T08:08:30;72.30;;;38.90;;
51852;SDS011;37894;53.172;6.598;2023-09-12T08:10:56;75.10;;;38.38;;
51852;SDS011;37894;53.172;6.598;2023-09-12T08:13:22;75.15;;;38.13;;
51852;SDS011;37894;53.172;6.598;2023-09-12T08:15:51;67.70;;;37.63;;
51852;SDS011;37894;53.172;6.598;2023-09-12T08:18:17;69.07;;;36.35;;
51852;SDS011;37894;53.172;6.598;2023-09-12T08:20:43;66.72;;;37.13;;
51852;SDS011;37894;53.172;6.598;2023-09-12T08:23:08;66.53;;;34.28;;
51852;SDS011;37894;53.172;6.598;2023-09-12T08:25:34;69.43;;;36.38;;
51852;SDS011;37894;53.172;6.598;2023-09-12T08:28:00;67.28;;;35.50;;
51852;SDS011;37894;53.172;6.598;2023-09-12T08:30:26;65.63;;;33.72;;
51852;SDS011;37894;53.172;6.598;2023-09-12T08:32:55;69.35;;;35.95;;
51852;SDS011;37894;53.172;6.598;2023-09-12T08:35:21;65.97;;;37.20;;
51852;SDS011;37894;53.172;6.598;2023-09-12T08:37:47;69.18;;;35.90;;
51852;SDS011;37894;53.172;6.598;2023-09-12T08:40:13;67.07;;;37.35;;
51852;SDS011;37894;53.172;6.598;2023-09-12T08:42:39;72.13;;;36.63;;
51852;SDS011;37894;53.172;6.598;2023-09-12T08:45:13;62.55;;;33.35;;
51852;SDS011;37894;53.172;6.598;2023-09-12T08:47:43;65.30;;;35.55;;
51852;SDS011;37894;53.172;6.598;2023-09-12T08:50:12;57.85;;;33.58;;
51852;SDS011;37894;53.172;6.598;2023-09-12T08:52:40;58.38;;;33.58;;
51852;SDS011;37894;53.172;6.598;2023-09-12T08:55:07;54.22;;;30.08;;
51852;SDS011;37894;53.172;6.598;2023-09-12T08:57:33;53.05;;;30.67;;
51852;SDS011;37894;53.172;6.598;2023-09-12T09:00:03;55.72;;;30.55;;
51852;SDS011;37894;53.172;6.598;2023-09-12T09:02:34;56.85;;;33.00;;
51852;SDS011;37894;53.172;6.598;2023-09-12T09:05:05;61.90;;;33.60;;
51852;SDS011;37894;53.172;6.598;2023-09-12T09:07:41;58.28;;;33.30;;
51852;SDS011;37894;53.172;6.598;2023-09-12T09:10:17;58.03;;;31.98;;
51852;SDS011;37894;53.172;6.598;2023-09-12T09:12:46;57.38;;;31.58;;
51852;SDS011;37894;53.172;6.598;2023-09-12T09:15:24;59.67;;;33.13;;
51852;SDS011;37894;53.172;6.598;2023-09-12T09:17:54;67.43;;;36.20;;
51852;SDS011;37894;53.172;6.598;2023-09-12T09:22:57;56.10;;;32.80;;
51852;SDS011;37894;53.172;6.598;2023-09-12T09:25:31;53.65;;;32.92;;
51852;SDS011;37894;53.172;6.598;2023-09-12T09:28:15;50.92;;;31.60;;
51852;SDS011;37894;53.172;6.598;2023-09-12T09:30:43;52.55;;;30.83;;
51852;SDS011;37894;53.172;6.598;2023-09-12T09:33:10;52.45;;;31.15;;
51852;SDS011;37894;53.172;6.598;2023-09-12T09:35:38;56.17;;;32.03;;
51852;SDS011;37894;53.172;6.598;2023-09-12T09:38:06;52.50;;;30.48;;
51852;SDS011;37894;53.172;6.598;2023-09-12T09:40:33;61.63;;;33.33;;
51852;SDS011;37894;53.172;6.598;2023-09-12T09:43:01;50.95;;;31.33;;
51852;SDS011;37894;53.172;6.598;2023-09-12T09:45:31;57.03;;;32.05;;
51852;SDS011;37894;53.172;6.598;2023-09-12T09:48:04;54.10;;;33.38;;
51852;SDS011;37894;53.172;6.598;2023-09-12T09:50:36;55.80;;;33.17;;
51852;SDS011;37894;53.172;6.598;2023-09-12T09:53:02;45.83;;;28.58;;
51852;SDS011;37894;53.172;6.598;2023-09-12T09:55:30;51.65;;;32.08;;
51852;SDS011;37894;53.172;6.598;2023-09-12T09:57:57;53.22;;;32.05;;
51852;SDS011;37894;53.172;6.598;2023-09-12T10:00:23;47.38;;;30.00;;
51852;SDS011;37894;53.172;6.598;2023-09-12T10:02:51;48.90;;;29.67;;
51852;SDS011;37894;53.172;6.598;2023-09-12T10:05:17;44.70;;;29.38;;
51852;SDS011;37894;53.172;6.598;2023-09-12T10:07:45;46.72;;;30.38;;
51852;SDS011;37894;53.172;6.598;2023-09-12T10:10:14;49.10;;;29.13;;
51852;SDS011;37894;53.172;6.598;2023-09-12T10:12:49;51.70;;;29.77;;
51852;SDS011;37894;53.172;6.598;2023-09-12T10:15:20;50.25;;;29.33;;
51852;SDS011;37894;53.172;6.598;2023-09-12T10:17:51;43.25;;;28.00;;
51852;SDS011;37894;53.172;6.598;2023-09-12T10:20:24;47.53;;;26.67;;
51852;SDS011;37894;53.172;6.598;2023-09-12T10:23:08;46.78;;;27.25;;
51852;SDS011;37894;53.172;6.598;2023-09-12T10:25:40;48.30;;;27.33;;
51852;SDS011;37894;53.172;6.598;2023-09-12T10:28:08;40.47;;;25.92;;
51852;SDS011;37894;53.172;6.598;2023-09-12T10:30:36;38.33;;;25.50;;
51852;SDS011;37894;53.172;6.598;2023-09-12T10:33:02;46.63;;;27.85;;
51852;SDS011;37894;53.172;6.598;2023-09-12T10:35:30;39.72;;;27.38;;
51852;SDS011;37894;53.172;6.598;2023-09-12T10:37:59;38.95;;;26.70;;
51852;SDS011;37894;53.172;6.598;2023-09-12T10:40:27;44.35;;;26.55;;
51852;SDS011;37894;53.172;6.598;2023-09-12T10:42:55;38.58;;;26.30;;
51852;SDS011;37894;53.172;6.598;2023-09-12T10:45:22;40.92;;;25.92;;
51852;SDS011;37894;53.172;6.598;2023-09-12T10:47:48;40.22;;;27.15;;
51852;SDS011;37894;53.172;6.598;2023-09-12T10:50:14;39.95;;;26.27;;
51852;SDS011;37894;53.172;6.598;2023-09-12T10:52:40;38.95;;;26.88;;
51852;SDS011;37894;53.172;6.598;2023-09-12T10:55:07;38.25;;;24.67;;
51852;SDS011;37894;53.172;6.598;2023-09-12T10:57:33;37.97;;;25.33;;
51852;SDS011;37894;53.172;6.598;2023-09-12T11:02:33;35.75;;;25.13;;
51852;SDS011;37894;53.172;6.598;2023-09-12T11:05:00;36.83;;;25.58;;
51852;SDS011;37894;53.172;6.598;2023-09-12T11:07:56;38.97;;;26.05;;
51852;SDS011;37894;53.172;6.598;2023-09-12T11:10:23;35.67;;;24.48;;
51852;SDS011;37894;53.172;6.598;2023-09-12T11:12:53;38.85;;;25.02;;
51852;SDS011;37894;53.172;6.598;2023-09-12T11:15:21;35.03;;;24.17;;
51852;SDS011;37894;53.172;6.598;2023-09-12T11:17:48;33.70;;;22.73;;
51852;SDS011;37894;53.172;6.598;2023-09-12T11:20:24;36.85;;;23.73;;
51852;SDS011;37894;53.172;6.598;2023-09-12T11:22:50;32.85;;;22.92;;
51852;SDS011;37894;53.172;6.598;2023-09-12T11:25:20;34.88;;;22.33;;
51852;SDS011;37894;53.172;6.598;2023-09-12T11:30:17;32.45;;;21.48;;
51852;SDS011;37894;53.172;6.598;2023-09-12T11:32:45;32.80;;;21.30;;
51852;SDS011;37894;53.172;6.598;2023-09-12T11:35:12;33.70;;;22.08;;
51852;SDS011;37894;53.172;6.598;2023-09-12T11:37:39;32.28;;;22.65;;
51852;SDS011;37894;53.172;6.598;2023-09-12T11:40:22;33.33;;;24.13;;
51852;SDS011;37894;53.172;6.598;2023-09-12T11:43:06;32.80;;;22.90;;
51852;SDS011;37894;53.172;6.598;2023-09-12T11:45:33;31.65;;;23.17;;
51852;SDS011;37894;53.172;6.598;2023-09-12T11:47:59;34.80;;;22.38;;
51852;SDS011;37894;53.172;6.598;2023-09-12T11:53:03;35.53;;;23.08;;
51852;SDS011;37894;53.172;6.598;2023-09-12T11:55:34;29.75;;;20.83;;
51852;SDS011;37894;53.172;6.598;2023-09-12T11:58:11;29.70;;;20.77;;
51852;SDS011;37894;53.172;6.598;2023-09-12T12:00:49;29.17;;;20.40;;
51852;SDS011;37894;53.172;6.598;2023-09-12T12:03:19;31.85;;;22.40;;
51852;SDS011;37894;53.172;6.598;2023-09-12T12:05:46;31.10;;;22.17;;
51852;SDS011;37894;53.172;6.598;2023-09-12T12:08:13;29.33;;;20.00;;
51852;SDS011;37894;53.172;6.598;2023-09-12T12:10:39;26.73;;;19.05;;
51852;SDS011;37894;53.172;6.598;2023-09-12T12:13:27;25.20;;;17.48;;
51852;SDS011;37894;53.172;6.598;2023-09-12T12:15:55;27.38;;;18.83;;
51852;SDS011;37894;53.172;6.598;2023-09-12T12:18:21;24.50;;;16.98;;
51852;SDS011;37894;53.172;6.598;2023-09-12T12:20:47;22.77;;;15.88;;
51852;SDS011;37894;53.172;6.598;2023-09-12T12:23:12;27.80;;;16.77;;
51852;SDS011;37894;53.172;6.598;2023-09-12T12:25:38;22.20;;;16.00;;
51852;SDS011;37894;53.172;6.598;2023-09-12T12:28:05;21.15;;;14.43;;
51852;SDS011;37894;53.172;6.598;2023-09-12T12:30:31;20.17;;;14.48;;
51852;SDS011;37894;53.172;6.598;2023-09-12T12:33:01;19.17;;;13.82;;
51852;SDS011;37894;53.172;6.598;2023-09-12T12:35:32;16.73;;;12.98;;
51852;SDS011;37894;53.172;6.598;2023-09-12T12:37:58;23.08;;;13.85;;
51852;SDS011;37894;53.172;6.598;2023-09-12T12:40:24;18.35;;;13.50;;
51852;SDS011;37894;53.172;6.598;2023-09-12T12:42:50;19.45;;;13.38;;
51852;SDS011;37894;53.172;6.598;2023-09-12T12:45:16;18.67;;;12.82;;
51852;SDS011;37894;53.172;6.598;2023-09-12T12:47:44;19.88;;;14.05;;
51852;SDS011;37894;53.172;6.598;2023-09-12T12:50:10;19.15;;;13.30;;
51852;SDS011;37894;53.172;6.598;2023-09-12T12:52:37;17.30;;;13.05;;
51852;SDS011;37894;53.172;6.598;2023-09-12T12:55:07;16.25;;;12.35;;
51852;SDS011;37894;53.172;6.598;2023-09-12T12:57:36;16.63;;;11.23;;
51852;SDS011;37894;53.172;6.598;2023-09-12T13:02:36;16.92;;;11.63;;
51852;SDS011;37894;53.172;6.598;2023-09-12T13:05:06;18.13;;;11.45;;
51852;SDS011;37894;53.172;6.598;2023-09-12T13:07:53;12.68;;;9.20;;
51852;SDS011;37894;53.172;6.598;2023-09-12T13:10:19;14.32;;;10.20;;
51852;SDS011;37894;53.172;6.598;2023-09-12T13:12:46;16.48;;;10.05;;
51852;SDS011;37894;53.172;6.598;2023-09-12T13:15:12;13.93;;;9.02;;
51852;SDS011;37894;53.172;6.598;2023-09-12T13:17:38;13.07;;;8.48;;
51852;SDS011;37894;53.172;6.598;2023-09-12T13:20:06;13.85;;;8.77;;
51852;SDS011;37894;53.172;6.598;2023-09-12T13:22:33;11.80;;;7.90;;
51852;SDS011;37894;53.172;6.598;2023-09-12T13:25:00;14.15;;;8.65;;
51852;SDS011;37894;53.172;6.598;2023-09-12T13:27:25;11.73;;;8.65;;
51852;SDS011;37894;53.172;6.598;2023-09-12T13:29:51;16.83;;;9.43;;
51852;SDS011;37894;53.172;6.598;2023-09-12T13:32:17;12.48;;;9.50;;
51852;SDS011;37894;53.172;6.598;2023-09-12T13:34:43;12.93;;;9.23;;
51852;SDS011;37894;53.172;6.598;2023-09-12T13:37:12;13.43;;;8.70;;
51852;SDS011;37894;53.172;6.598;2023-09-12T13:39:41;12.93;;;8.45;;
51852;SDS011;37894;53.172;6.598;2023-09-12T13:42:13;14.55;;;9.35;;
51852;SDS011;37894;53.172;6.598;2023-09-12T13:44:43;13.63;;;8.00;;
51852;SDS011;37894;53.172;6.598;2023-09-12T13:47:09;12.82;;;7.70;;
51852;SDS011;37894;53.172;6.598;2023-09-12T13:49:35;9.13;;;6.47;;
51852;SDS011;37894;53.172;6.598;2023-09-12T13:52:01;13.45;;;6.78;;
51852;SDS011;37894;53.172;6.598;2023-09-12T13:54:27;11.23;;;6.47;;
51852;SDS011;37894;53.172;6.598;2023-09-12T13:56:53;12.75;;;6.97;;
51852;SDS011;37894;53.172;6.598;2023-09-12T13:59:18;10.07;;;6.45;;
51852;SDS011;37894;53.172;6.598;2023-09-12T14:01:45;8.07;;;5.68;;
51852;SDS011;37894;53.172;6.598;2023-09-12T14:04:11;8.73;;;6.82;;
51852;SDS011;37894;53.172;6.598;2023-09-12T14:06:38;9.50;;;6.47;;
51852;SDS011;37894;53.172;6.598;2023-09-12T14:09:04;11.05;;;6.60;;
51852;SDS011;37894;53.172;6.598;2023-09-12T14:11:30;11.02;;;6.85;;
51852;SDS011;37894;53.172;6.598;2023-09-12T14:13:56;11.00;;;8.15;;
51852;SDS011;37894;53.172;6.598;2023-09-12T14:16:22;10.85;;;6.72;;
51852;SDS011;37894;53.172;6.598;2023-09-12T14:18:47;10.55;;;6.28;;
51852;SDS011;37894;53.172;6.598;2023-09-12T14:21:13;11.48;;;6.05;;
51852;SDS011;37894;53.172;6.598;2023-09-12T14:23:38;7.97;;;5.47;;
51852;SDS011;37894;53.172;6.598;2023-09-12T14:26:04;8.02;;;5.97;;
51852;SDS011;37894;53.172;6.598;2023-09-12T14:28:30;10.35;;;6.05;;
51852;SDS011;37894;53.172;6.598;2023-09-12T14:30:57;7.13;;;5.20;;
51852;SDS011;37894;53.172;6.598;2023-09-12T14:33:23;7.50;;;5.55;;
51852;SDS011;37894;53.172;6.598;2023-09-12T14:35:48;9.95;;;5.65;;
51852;SDS011;37894;53.172;6.598;2023-09-12T14:38:14;10.63;;;5.72;;
51852;SDS011;37894;53.172;6.598;2023-09-12T14:40:40;10.27;;;5.20;;
51852;SDS011;37894;53.172;6.598;2023-09-12T14:43:06;8.27;;;5.78;;